Time;durP1;ratioP1;P1;durP2;ratioP2;P2;SDS_P1;SDS_P2;PMS_P1;PMS_P2;Temp;Humidity;BMP_temperature;BMP_pressure;BME280_temperature;BME280_humidity;BME280_pressure;Samples;Min_cycle;Max_cycle;Signal;HPM_P1;HPM_P2
2022/09/16 00:00:52;;;;;;;11.67;2.27;;;13.00;99.90;;;;;;4896058;29;20552;-76
2022/09/16 00:03:18;;;;;;;4.20;1.60;;;13.00;99.90;;;;;;4897274;29;20183;-75
2022/09/16 00:05:46;;;;;;;5.03;1.57;;;12.90;99.90;;;;;;4896801;29;20509;-75
2022/09/16 00:08:13;;;;;;;4.40;1.60;;;12.90;99.90;;;;;;4897430;29;20426;-74
2022/09/16 00:10:39;;;;;;;3.20;1.57;;;12.90;99.90;;;;;;4897344;29;20408;-75
2022/09/16 00:13:05;;;;;;;4.43;1.40;;;12.90;99.90;;;;;;4895936;29;20967;-75
2022/09/16 00:15:31;;;;;;;4.90;3.30;;;12.90;99.90;;;;;;4896938;29;20522;-76
2022/09/16 00:17:56;;;;;;;5.30;1.43;;;12.90;99.90;;;;;;4897133;29;20175;-75
2022/09/16 00:20:22;;;;;;;3.50;1.60;;;12.80;99.90;;;;;;4897358;29;20183;-75
2022/09/16 00:22:47;;;;;;;5.00;2.13;;;12.80;99.90;;;;;;4897229;29;20661;-75
2022/09/16 00:25:13;;;;;;;2.60;1.33;;;12.80;99.90;;;;;;4897204;29;20193;-76
2022/09/16 00:27:39;;;;;;;5.07;1.43;;;12.80;99.90;;;;;;4897043;29;20233;-75
2022/09/16 00:30:05;;;;;;;4.00;1.40;;;12.80;99.90;;;;;;4897065;29;20265;-76
2022/09/16 00:32:30;;;;;;;5.53;1.50;;;12.90;99.90;;;;;;4898814;29;20211;-76
2022/09/16 00:34:56;;;;;;;3.77;1.40;;;12.90;99.90;;;;;;4901067;29;20426;-74
2022/09/16 00:37:22;;;;;;;5.23;2.03;;;12.90;99.90;;;;;;4900488;29;20230;-76
2022/09/16 00:39:48;;;;;;;2.70;1.10;;;12.90;99.90;;;;;;4900584;29;20183;-76
2022/09/16 00:42:14;;;;;;;13.77;1.90;;;12.90;99.90;;;;;;4899353;29;20875;-74
2022/09/16 00:45:17;;;;;;;3.67;1.43;;;12.90;99.90;;;;;;4900279;29;20462;-76
2022/09/16 00:47:52;;;;;;;2.80;1.80;;;12.80;99.90;;;;;;4899301;29;20982;-75
2022/09/16 00:50:47;;;;;;;3.43;1.37;;;12.70;99.90;;;;;;4900333;29;20419;-74
2022/09/16 00:53:26;;;;;;;3.83;2.20;;;12.60;99.90;;;;;;4899639;29;20477;-75
2022/09/16 00:55:54;;;;;;;5.53;1.70;;;12.50;99.90;;;;;;4899822;29;20438;-75
2022/09/16 00:59:02;;;;;;;5.57;1.40;;;12.50;99.90;;;;;;4900228;29;20506;-76
2022/09/16 01:01:29;;;;;;;7.83;1.87;;;12.50;99.90;;;;;;4897278;29;20431;-75
2022/09/16 01:04:03;;;;;;;2.60;1.40;;;12.50;99.90;;;;;;4899564;29;20518;-75
2022/09/16 01:06:31;;;;;;;6.00;1.40;;;12.50;99.90;;;;;;4899820;29;20530;-76
2022/09/16 01:08:57;;;;;;;7.23;1.53;;;12.50;99.90;;;;;;4899893;29;20482;-74
2022/09/16 01:11:23;;;;;;;4.53;1.23;;;12.50;99.90;;;;;;4899942;29;20427;-74
2022/09/16 01:13:50;;;;;;;8.07;1.80;;;12.60;99.90;;;;;;4899460;29;20475;-75
2022/09/16 01:16:24;;;;;;;6.93;1.50;;;12.60;99.90;;;;;;4899556;29;20245;-76
2022/09/16 01:19:34;;;;;;;5.13;1.50;;;12.60;99.90;;;;;;4899876;29;20833;-74
2022/09/16 01:22:21;;;;;;;7.30;1.60;;;12.60;99.90;;;;;;4898196;29;20431;-75
2022/09/16 01:24:53;;;;;;;4.00;1.50;;;12.60;99.90;;;;;;4899442;29;20423;-75
2022/09/16 01:27:49;;;;;;;3.60;1.60;;;12.60;99.90;;;;;;4899424;29;20463;-74
2022/09/16 01:30:43;;;;;;;7.50;1.70;;;12.60;99.90;;;;;;4899486;29;20419;-75
2022/09/16 01:33:24;;;;;;;3.17;1.13;;;12.60;99.90;;;;;;4882819;29;20490;-74
2022/09/16 01:36:08;;;;;;;4.07;1.70;;;12.70;99.90;;;;;;4898138;29;20481;-75
2022/09/16 01:38:43;;;;;;;4.93;1.70;;;12.70;99.90;;;;;;4899414;29;20766;-74
2022/09/16 01:41:13;;;;;;;5.43;1.37;;;12.70;99.90;;;;;;4899370;29;20423;-74
2022/09/16 01:43:57;;;;;;;1.70;1.30;;;12.70;99.90;;;;;;4899295;29;20422;-76
2022/09/16 01:46:40;;;;;;;4.87;1.47;;;12.70;99.90;;;;;;4899337;29;20450;-76
2022/09/16 01:49:25;;;;;;;3.03;1.30;;;12.80;99.90;;;;;;4899282;29;20941;-75
2022/09/16 01:52:22;;;;;;;1.87;1.20;;;12.70;99.90;;;;;;4899118;29;20422;-75
2022/09/16 01:55:26;;;;;;;4.37;0.93;;;12.80;99.90;;;;;;4897112;29;20944;-76
2022/09/16 01:57:54;;;;;;;1.53;1.00;;;12.70;99.90;;;;;;4897547;29;20447;-75
2022/09/16 02:00:21;;;;;;;4.00;1.43;;;12.70;99.90;;;;;;4899069;29;20466;-75
2022/09/16 02:02:49;;;;;;;4.13;1.40;;;12.70;99.90;;;;;;4898875;29;20420;-74
2022/09/16 02:05:28;;;;;;;5.10;1.87;;;12.60;99.90;;;;;;4898726;29;20451;-74
2022/09/16 02:08:00;;;;;;;6.83;2.03;;;12.60;99.90;;;;;;4898967;29;20422;-76
2022/09/16 02:10:33;;;;;;;5.63;1.53;;;12.50;99.90;;;;;;4898841;29;20457;-74
2022/09/16 02:13:16;;;;;;;9.63;1.50;;;12.50;99.90;;;;;;4898800;29;20565;-74
2022/09/16 02:15:45;;;;;;;6.40;1.53;;;12.50;99.90;;;;;;4897222;29;20472;-74
2022/09/16 02:18:13;;;;;;;5.40;2.03;;;12.60;99.90;;;;;;4898734;29;20442;-76
2022/09/16 02:20:43;;;;;;;2.77;1.17;;;12.60;99.90;;;;;;4898535;29;20415;-75
2022/09/16 02:23:21;;;;;;;2.60;1.33;;;12.60;99.90;;;;;;4898542;29;20487;-74
2022/09/16 02:25:49;;;;;;;5.00;1.20;;;12.60;99.90;;;;;;4898365;29;20483;-75
2022/09/16 02:28:34;;;;;;;5.87;1.30;;;12.60;99.90;;;;;;4898417;29;20844;-75
2022/09/16 02:31:04;;;;;;;2.97;1.63;;;12.60;99.90;;;;;;4898460;29;20433;-74
2022/09/16 02:33:36;;;;;;;5.80;1.90;;;12.50;99.90;;;;;;4898693;29;20883;-76
2022/09/16 02:36:03;;;;;;;2.90;1.43;;;12.60;99.90;;;;;;4898126;29;20446;-74
2022/09/16 02:38:35;;;;;;;9.00;1.80;;;12.60;99.90;;;;;;4898375;29;20428;-75
2022/09/16 02:41:02;;;;;;;8.57;2.10;;;12.60;99.90;;;;;;4898265;29;20419;-76
2022/09/16 02:43:28;;;;;;;3.20;1.93;;;12.70;99.90;;;;;;4898363;29;20733;-75
2022/09/16 02:46:03;;;;;;;6.17;1.90;;;12.60;99.90;;;;;;4897843;29;20917;-75
2022/09/16 02:48:47;;;;;;;8.33;2.13;;;12.60;99.90;;;;;;4898270;29;20454;-75
2022/09/16 02:51:28;;;;;;;7.90;2.30;;;12.60;99.90;;;;;;4898284;29;20913;-75
2022/09/16 02:54:21;;;;;;;6.70;1.93;;;12.60;99.90;;;;;;4897410;29;20640;-75
2022/09/16 02:56:47;;;;;;;4.43;1.80;;;12.50;99.90;;;;;;4897937;29;20431;-75
2022/09/16 02:59:15;;;;;;;11.60;2.30;;;12.50;99.90;;;;;;4896745;29;20462;-73
2022/09/16 03:01:44;;;;;;;8.57;1.90;;;12.40;99.90;;;;;;4898154;29;20463;-75
2022/09/16 03:04:13;;;;;;;5.67;2.20;;;12.40;99.90;;;;;;4897670;29;20966;-74
2022/09/16 03:06:38;;;;;;;8.20;2.10;;;12.40;99.90;;;;;;4897770;29;20435;-74
2022/09/16 03:09:07;;;;;;;7.97;1.77;;;12.40;99.90;;;;;;4896502;29;20474;-74
2022/09/16 03:12:01;;;;;;;4.93;2.13;;;12.40;99.90;;;;;;4897835;29;20574;-75
2022/09/16 03:14:53;;;;;;;7.70;2.10;;;12.50;99.90;;;;;;4897571;29;20435;-74
2022/09/16 03:17:40;;;;;;;5.07;2.30;;;12.60;99.90;;;;;;4897439;29;20446;-75
2022/09/16 03:20:50;;;;;;;6.03;2.37;;;12.60;99.90;;;;;;4897710;29;20419;-75
2022/09/16 03:23:31;;;;;;;8.60;2.03;;;12.60;99.90;;;;;;4897574;29;20419;-75
2022/09/16 03:26:44;;;;;;;5.57;2.13;;;12.50;99.90;;;;;;4897814;29;20435;-75
2022/09/16 03:29:24;;;;;;;6.50;2.73;;;12.50;99.90;;;;;;4897510;29;20455;-75
2022/09/16 03:32:10;;;;;;;3.93;1.90;;;12.50;99.90;;;;;;4897664;29;20900;-75
2022/09/16 03:34:41;;;;;;;10.53;2.83;;;12.50;99.90;;;;;;4897486;29;20415;-74
2022/09/16 03:37:12;;;;;;;7.80;2.97;;;12.60;99.90;;;;;;4897643;29;20427;-75
2022/09/16 03:39:38;;;;;;;3.30;2.57;;;12.50;99.90;;;;;;4897634;29;20748;-75
2022/09/16 03:42:07;;;;;;;7.07;2.60;;;12.50;99.90;;;;;;4897598;29;20418;-75
2022/09/16 03:44:39;;;;;;;6.30;2.57;;;12.50;99.90;;;;;;4897191;29;20441;-74
2022/09/16 03:47:06;;;;;;;7.90;2.70;;;12.50;99.90;;;;;;4897520;29;20443;-74
2022/09/16 03:49:32;;;;;;;2.67;1.60;;;12.60;99.90;;;;;;4897544;29;20431;-75
2022/09/16 03:51:58;;;;;;;6.07;2.60;;;12.60;99.90;;;;;;4897487;29;20511;-73
2022/09/16 03:54:24;;;;;;;11.53;3.00;;;12.60;99.90;;;;;;4897170;29;20183;-74
2022/09/16 03:56:49;;;;;;;9.60;2.50;;;12.50;99.90;;;;;;4897364;29;20449;-74
2022/09/16 03:59:16;;;;;;;15.10;2.77;;;12.50;99.90;;;;;;4897449;29;20218;-74
2022/09/16 04:01:42;;;;;;;6.10;2.27;;;12.50;99.90;;;;;;4897859;29;20671;-75
2022/09/16 04:04:07;;;;;;;6.30;2.23;;;12.40;99.90;;;;;;4897490;29;20511;-75
2022/09/16 04:06:33;;;;;;;23.40;3.27;;;12.50;99.90;;;;;;4898358;29;20471;-74
2022/09/16 04:09:01;;;;;;;8.83;2.10;;;12.40;99.90;;;;;;4901547;29;20529;-74
2022/09/16 04:11:28;;;;;;;5.13;2.30;;;12.30;99.90;;;;;;4901360;29;20265;-74
2022/09/16 04:13:54;;;;;;;7.47;2.20;;;12.20;99.90;;;;;;4900953;29;20582;-74
2022/09/16 04:16:20;;;;;;;9.57;2.40;;;12.30;99.90;;;;;;4901307;29;20537;-74
2022/09/16 04:18:47;;;;;;;8.03;2.03;;;12.30;99.90;;;;;;4901269;29;20279;-74
2022/09/16 04:21:12;;;;;;;8.30;2.23;;;12.30;99.90;;;;;;4901307;29;20437;-74
2022/09/16 04:23:38;;;;;;;11.60;3.10;;;12.30;99.90;;;;;;4899943;29;20921;-74
2022/09/16 04:26:04;;;;;;;5.30;1.67;;;12.20;99.90;;;;;;4900769;29;20242;-74
2022/09/16 04:28:31;;;;;;;4.20;2.27;;;12.10;99.90;;;;;;4901089;29;20206;-74
2022/09/16 04:31:11;;;;;;;4.00;2.13;;;12.10;99.90;;;;;;4901025;29;20529;-75
2022/09/16 04:33:37;;;;;;;6.10;2.50;;;12.00;99.90;;;;;;4901009;29;20867;-74
2022/09/16 04:36:04;;;;;;;6.80;2.00;;;12.00;99.90;;;;;;4899422;29;20530;-74
2022/09/16 04:38:30;;;;;;;8.17;1.93;;;11.90;99.90;;;;;;4901167;29;20175;-74
2022/09/16 04:41:04;;;;;;;7.60;2.33;;;11.80;99.90;;;;;;4900967;29;20442;-74
2022/09/16 04:43:30;;;;;;;9.47;2.30;;;11.70;99.90;;;;;;4900953;29;20643;-75
2022/09/16 04:45:56;;;;;;;9.63;2.47;;;11.70;99.90;;;;;;4900310;29;20442;-74
2022/09/16 04:48:21;;;;;;;4.90;2.40;;;11.70;99.90;;;;;;4900894;29;20186;-74
2022/09/16 04:50:47;;;;;;;3.73;2.07;;;11.60;99.90;;;;;;4900671;29;20179;-74
2022/09/16 04:53:13;;;;;;;8.20;2.40;;;11.70;99.90;;;;;;4900624;29;20202;-74
2022/09/16 04:55:38;;;;;;;8.03;2.27;;;11.70;99.90;;;;;;4900220;29;20213;-74
2022/09/16 04:58:04;;;;;;;8.03;2.47;;;11.80;99.90;;;;;;4900504;29;20421;-74
2022/09/16 05:00:29;;;;;;;8.97;2.03;;;11.80;99.90;;;;;;4900720;29;20179;-74
2022/09/16 05:02:55;;;;;;;8.20;2.00;;;11.80;99.90;;;;;;4900549;29;20648;-75
2022/09/16 05:05:20;;;;;;;8.70;2.40;;;11.80;99.90;;;;;;4900139;29;20179;-74
2022/09/16 05:07:46;;;;;;;4.40;2.13;;;11.90;99.90;;;;;;4900367;29;20199;-74
2022/09/16 05:10:12;;;;;;;9.73;2.73;;;11.90;99.90;;;;;;4900339;29;20179;-74
2022/09/16 05:12:38;;;;;;;9.60;2.50;;;11.90;99.90;;;;;;4900466;29;20669;-73
2022/09/16 05:15:04;;;;;;;8.63;1.90;;;12.00;99.90;;;;;;4899908;29;20187;-74
2022/09/16 05:17:30;;;;;;;9.20;1.73;;;12.00;99.90;;;;;;4899614;29;20661;-74
2022/09/16 05:19:57;;;;;;;8.03;2.03;;;12.00;99.90;;;;;;4900151;29;20415;-74
2022/09/16 05:22:22;;;;;;;7.70;1.90;;;11.80;99.90;;;;;;4900057;29;20415;-74
2022/09/16 05:24:48;;;;;;;4.93;2.80;;;11.90;99.90;;;;;;4898754;29;20479;-74
2022/09/16 05:27:14;;;;;;;9.27;2.90;;;11.70;99.90;;;;;;4899983;29;20632;-74
2022/09/16 05:29:40;;;;;;;8.80;2.43;;;11.80;99.90;;;;;;4899005;29;20527;-74
2022/09/16 05:32:06;;;;;;;8.63;3.13;;;11.80;99.90;;;;;;4899988;29;20581;-75
2022/09/16 05:34:34;;;;;;;8.40;3.30;;;11.80;99.90;;;;;;4899978;29;20537;-74
2022/09/16 05:37:00;;;;;;;16.33;2.40;;;11.90;99.90;;;;;;4899842;29;20438;-74
2022/09/16 05:39:26;;;;;;;7.50;2.27;;;11.90;99.90;;;;;;4899837;29;20434;-74
2022/09/16 05:41:57;;;;;;;12.63;2.53;;;11.90;99.90;;;;;;4900111;29;20191;-74
2022/09/16 05:44:24;;;;;;;13.20;3.27;;;12.00;99.90;;;;;;4899558;29;20183;-74
2022/09/16 05:46:50;;;;;;;8.90;2.40;;;12.00;99.90;;;;;;4899843;29;20435;-74
2022/09/16 05:49:19;;;;;;;6.10;2.10;;;12.10;99.90;;;;;;4899923;29;20422;-74
2022/09/16 05:51:45;;;;;;;9.40;2.47;;;12.10;99.90;;;;;;4899767;29;20433;-74
2022/09/16 05:54:11;;;;;;;8.27;1.97;;;12.10;99.90;;;;;;4899321;29;20960;-74
2022/09/16 05:56:37;;;;;;;7.50;1.90;;;12.10;99.90;;;;;;4899004;29;20439;-76
2022/09/16 05:59:02;;;;;;;7.30;1.80;;;12.20;99.90;;;;;;4898267;29;20430;-75
2022/09/16 06:01:31;;;;;;;5.20;1.93;;;12.30;99.90;;;;;;4896691;29;20732;-75
2022/09/16 06:03:58;;;;;;;6.37;2.07;;;12.30;99.90;;;;;;4896850;29;20194;-76
2022/09/16 06:06:30;;;;;;;7.40;1.97;;;12.30;99.90;;;;;;4897752;29;20451;-75
2022/09/16 06:09:03;;;;;;;2.33;1.43;;;12.30;99.90;;;;;;4898083;29;20415;-75
2022/09/16 06:11:29;;;;;;;2.13;1.50;;;12.30;99.90;;;;;;4895689;29;20500;-75
2022/09/16 06:14:00;;;;;;;5.50;1.53;;;12.40;99.90;;;;;;4897239;29;20494;-75
2022/09/16 06:16:27;;;;;;;8.00;2.47;;;12.50;99.90;;;;;;4897340;29;20439;-75
2022/09/16 06:18:54;;;;;;;10.87;2.10;;;12.50;99.90;;;;;;4897251;29;20935;-76
2022/09/16 06:21:20;;;;;;;3.17;2.00;;;12.40;99.90;;;;;;4897354;29;20423;-75
2022/09/16 06:23:45;;;;;;;6.80;1.80;;;12.40;99.90;;;;;;4897904;29;20430;-75
2022/09/16 06:26:16;;;;;;;10.87;1.60;;;12.40;99.90;;;;;;4896418;29;20447;-75
2022/09/16 06:28:43;;;;;;;9.50;2.03;;;12.50;99.90;;;;;;4897200;29;20202;-75
2022/09/16 06:31:20;;;;;;;7.97;1.80;;;12.60;99.90;;;;;;4896552;29;20814;-76
2022/09/16 06:33:49;;;;;;;7.07;1.93;;;12.60;99.90;;;;;;4896890;29;20606;-75
2022/09/16 06:36:18;;;;;;;12.47;1.90;;;12.60;99.90;;;;;;4896738;29;20554;-75
2022/09/16 06:38:44;;;;;;;8.53;1.80;;;12.60;99.90;;;;;;4897383;29;20459;-74
2022/09/16 06:41:12;;;;;;;3.47;1.40;;;12.60;99.90;;;;;;4895147;29;20459;-75
2022/09/16 06:43:38;;;;;;;6.00;1.33;;;12.60;99.90;;;;;;4897846;29;20445;-74
2022/09/16 06:46:12;;;;;;;8.57;2.10;;;12.70;99.90;;;;;;4895552;29;20490;-75
2022/09/16 06:48:39;;;;;;;4.30;1.60;;;12.60;99.90;;;;;;4896736;29;20427;-75
2022/09/16 06:51:08;;;;;;;6.53;1.97;;;12.60;99.90;;;;;;4896823;29;20423;-75
2022/09/16 06:53:34;;;;;;;8.87;1.70;;;12.70;99.90;;;;;;4897337;29;20477;-75
2022/09/16 06:56:05;;;;;;;8.97;1.60;;;12.60;99.90;;;;;;4895755;29;20447;-74
2022/09/16 06:58:32;;;;;;;3.33;1.43;;;12.70;99.90;;;;;;4897373;29;20415;-76
2022/09/16 07:00:58;;;;;;;6.90;1.90;;;12.70;99.90;;;;;;4896799;29;20454;-75
2022/09/16 07:03:24;;;;;;;8.17;2.50;;;12.70;99.90;;;;;;4896934;29;20474;-75
2022/09/16 07:06:00;;;;;;;3.57;1.30;;;12.70;99.90;;;;;;4897062;29;20455;-79
2022/09/16 07:08:28;;;;;;;4.60;1.10;;;12.80;99.90;;;;;;4898601;29;20430;-73
2022/09/16 07:10:56;;;;;;;4.30;1.83;;;12.90;99.90;;;;;;4898128;29;20415;-75
2022/09/16 07:13:21;;;;;;;4.70;1.77;;;12.90;99.90;;;;;;4898190;29;20526;-74
2022/09/16 07:15:47;;;;;;;6.10;1.40;;;13.10;99.90;;;;;;4897911;29;20423;-76
2022/09/16 07:18:12;;;;;;;5.67;1.30;;;13.20;99.90;;;;;;4898327;29;20186;-75
2022/09/16 07:20:38;;;;;;;5.60;1.50;;;13.30;99.90;;;;;;4897055;29;20189;-75
2022/09/16 07:23:04;;;;;;;8.37;1.93;;;13.30;99.90;;;;;;4896898;29;20207;-76
2022/09/16 07:25:30;;;;;;;3.47;1.60;;;13.30;99.90;;;;;;4897942;29;20652;-76
2022/09/16 07:27:56;;;;;;;4.23;1.53;;;13.30;99.90;;;;;;4897970;29;20281;-75
2022/09/16 07:30:22;;;;;;;3.10;1.33;;;13.30;99.90;;;;;;4896980;29;20423;-75
2022/09/16 07:32:47;;;;;;;5.20;1.40;;;13.20;99.90;;;;;;4897095;29;20975;-75
2022/09/16 07:35:13;;;;;;;3.97;1.70;;;13.30;99.90;;;;;;4897876;29;20191;-74
2022/09/16 07:37:38;;;;;;;5.03;1.33;;;13.30;99.90;;;;;;4898074;29;20199;-75
2022/09/16 07:40:04;;;;;;;6.83;1.20;;;13.40;99.90;;;;;;4896866;29;20262;-74
2022/09/16 07:42:30;;;;;;;3.57;1.10;;;13.50;99.90;;;;;;4902055;29;20197;-74
2022/09/16 07:44:56;;;;;;;1.77;1.00;;;13.70;99.90;;;;;;4900378;29;20431;-75
2022/09/16 07:47:22;;;;;;;5.43;1.30;;;13.80;99.90;;;;;;4901936;29;20811;-75
2022/09/16 07:49:47;;;;;;;3.33;1.53;;;13.70;99.90;;;;;;4900986;29;20588;-76
2022/09/16 07:52:15;;;;;;;1.67;0.93;;;13.70;99.90;;;;;;4901995;29;20236;-74
2022/09/16 07:54:40;;;;;;;4.07;1.07;;;13.80;99.90;;;;;;4901527;29;20171;-75
2022/09/16 07:57:06;;;;;;;5.03;1.00;;;13.90;99.90;;;;;;4901610;29;20530;-76
2022/09/16 07:59:31;;;;;;;6.83;2.23;;;13.90;99.90;;;;;;4901742;29;20230;-74
2022/09/16 08:01:57;;;;;;;7.13;1.20;;;13.90;99.90;;;;;;4901919;29;20653;-76
2022/09/16 08:04:23;;;;;;;3.73;0.90;;;13.90;99.90;;;;;;4901592;29;20545;-73
2022/09/16 08:06:49;;;;;;;1.70;0.93;;;13.90;99.90;;;;;;4900470;29;20207;-75
2022/09/16 08:09:14;;;;;;;10.20;1.43;;;13.90;99.90;;;;;;4900312;29;20186;-74
2022/09/16 08:11:40;;;;;;;3.90;1.20;;;13.90;99.90;;;;;;4901461;29;20186;-74
2022/09/16 08:14:05;;;;;;;4.47;1.20;;;14.00;99.90;;;;;;4884439;29;20498;-74
2022/09/16 08:16:31;;;;;;;6.50;1.53;;;13.90;99.90;;;;;;4901446;29;20202;-76
2022/09/16 08:18:57;;;;;;;4.10;1.20;;;14.00;99.90;;;;;;4901324;29;20677;-75
2022/09/16 08:21:26;;;;;;;3.63;1.03;;;14.00;99.90;;;;;;4901147;29;20202;-75
2022/09/16 08:23:53;;;;;;;5.00;1.40;;;13.90;99.90;;;;;;4900823;29;20524;-74
2022/09/16 08:26:19;;;;;;;5.07;1.70;;;13.90;99.90;;;;;;4901169;29;20439;-75
2022/09/16 08:28:47;;;;;;;2.17;0.93;;;13.90;99.90;;;;;;4901113;29;20451;-75
2022/09/16 08:31:13;;;;;;;2.67;1.10;;;14.10;99.90;;;;;;4901111;29;20976;-76
2022/09/16 08:33:40;;;;;;;3.50;0.93;;;14.20;99.90;;;;;;4899717;29;20660;-75
2022/09/16 08:36:18;;;;;;;3.80;0.70;;;14.50;99.90;;;;;;4899526;29;20538;-75
2022/09/16 08:38:45;;;;;;;2.07;0.70;;;14.70;99.90;;;;;;4901325;29;20451;-74
2022/09/16 08:41:32;;;;;;;1.63;0.90;;;14.70;99.90;;;;;;4901280;29;20782;-74
2022/09/16 08:44:23;;;;;;;7.00;1.77;;;14.80;99.90;;;;;;4900816;29;20415;-75
2022/09/16 08:46:56;;;;;;;1.33;0.90;;;14.70;99.90;;;;;;4900941;29;20424;-76
2022/09/16 08:49:26;;;;;;;3.33;1.20;;;14.70;99.90;;;;;;4884092;29;20506;-76
2022/09/16 08:51:54;;;;;;;3.10;0.87;;;14.80;99.90;;;;;;4900316;29;20471;-75
2022/09/16 08:54:36;;;;;;;2.70;0.97;;;14.60;99.90;;;;;;4900073;29;20467;-76
2022/09/16 08:57:05;;;;;;;1.73;0.70;;;14.70;99.90;;;;;;4900670;29;20434;-75
2022/09/16 08:59:39;;;;;;;1.80;0.90;;;14.50;99.90;;;;;;4900585;29;20456;-73
2022/09/16 09:02:34;;;;;;;12.23;1.17;;;14.70;99.90;;;;;;4899484;29;20430;-75
2022/09/16 09:05:02;;;;;;;4.20;0.80;;;14.80;99.90;;;;;;4899216;29;20824;-76
2022/09/16 09:08:07;;;;;;;5.60;1.10;;;15.20;99.90;;;;;;4900464;29;20431;-75
2022/09/16 09:10:33;;;;;;;2.03;0.80;;;15.50;99.90;;;;;;4900683;29;20428;-74
2022/09/16 09:13:23;;;;;;;3.93;1.00;;;16.00;99.90;;;;;;4900350;29;20899;-75
2022/09/16 09:16:08;;;;;;;7.23;1.00;;;16.30;99.90;;;;;;4899878;29;22361;-76
2022/09/16 09:18:58;;;;;;;2.63;0.70;;;16.30;99.90;;;;;;4900430;29;20414;-74
2022/09/16 09:21:32;;;;;;;2.27;0.70;;;16.20;99.90;;;;;;4900335;29;20407;-73
2022/09/16 09:24:26;;;;;;;1.43;0.67;;;16.40;99.90;;;;;;4899746;29;20421;-73
2022/09/16 09:26:59;;;;;;;2.77;0.90;;;16.40;99.90;;;;;;4900111;29;20477;-75
2022/09/16 09:29:43;;;;;;;3.50;1.00;;;16.20;99.90;;;;;;4900417;29;20411;-74
2022/09/16 09:32:27;;;;;;;1.40;0.80;;;16.00;99.90;;;;;;4900171;29;20394;-74
2022/09/16 09:35:31;;;;;;;6.37;1.87;;;15.70;99.90;;;;;;4899611;29;20410;-73
2022/09/16 09:38:05;;;;;;;2.20;1.10;;;15.60;99.90;;;;;;4899740;29;20469;-73
2022/09/16 09:40:44;;;;;;;4.20;0.83;;;15.30;99.90;;;;;;4899926;29;20525;-75
2022/09/16 09:43:36;;;;;;;2.13;0.80;;;15.30;99.90;;;;;;4899937;29;20430;-75
2022/09/16 09:46:09;;;;;;;1.60;0.80;;;15.30;99.90;;;;;;4899408;29;20793;-75
2022/09/16 09:48:56;;;;;;;2.87;1.00;;;15.20;99.90;;;;;;4883064;29;20427;-72
2022/09/16 09:51:50;;;;;;;3.40;0.80;;;15.30;99.90;;;;;;4900007;29;20419;-75
2022/09/16 09:54:24;;;;;;;3.90;0.83;;;15.50;99.90;;;;;;4882682;29;20471;-75
2022/09/16 09:56:55;;;;;;;2.73;1.10;;;16.20;99.90;;;;;;4899801;29;20481;-75
2022/09/16 09:59:44;;;;;;;2.37;0.80;;;16.70;99.90;;;;;;4899725;29;20490;-75
2022/09/16 10:02:21;;;;;;;4.00;1.43;;;17.30;99.90;;;;;;4899601;29;20415;-74
2022/09/16 10:04:47;;;;;;;2.87;0.70;;;17.80;99.90;;;;;;4899236;29;20418;-73
2022/09/16 10:07:17;;;;;;;0.80;0.60;;;17.00;99.90;;;;;;4899390;29;20450;-73
2022/09/16 10:09:55;;;;;;;6.00;1.20;;;16.60;99.90;;;;;;4899399;29;20393;-75
2022/09/16 10:12:34;;;;;;;1.47;0.83;;;16.10;99.90;;;;;;4899249;29;20561;-74
2022/09/16 10:15:00;;;;;;;3.00;0.97;;;16.30;99.90;;;;;;4898981;29;20915;-76
2022/09/16 10:17:31;;;;;;;5.57;0.80;;;16.30;99.90;;;;;;4899183;29;20442;-74
2022/09/16 10:20:19;;;;;;;3.00;0.80;;;16.10;99.90;;;;;;4899128;29;20443;-75
2022/09/16 10:23:07;;;;;;;3.60;1.10;;;16.50;99.90;;;;;;4898969;29;20416;-75
2022/09/16 10:25:33;;;;;;;3.83;0.80;;;17.70;99.90;;;;;;4898853;29;20771;-76
2022/09/16 10:28:01;;;;;;;2.20;0.90;;;17.70;99.90;;;;;;4898984;29;20450;-76
2022/09/16 10:30:31;;;;;;;1.87;0.97;;;17.00;99.90;;;;;;4898918;29;20389;-74
2022/09/16 10:33:10;;;;;;;5.90;1.23;;;17.00;99.90;;;;;;4898781;29;20963;-75
2022/09/16 10:35:38;;;;;;;3.60;0.90;;;16.90;99.90;;;;;;4898617;29;20385;-75
2022/09/16 10:38:11;;;;;;;2.50;1.30;;;16.50;99.90;;;;;;4898827;29;20475;-75
2022/09/16 10:40:38;;;;;;;3.17;1.00;;;16.30;99.90;;;;;;4898769;29;20415;-76
2022/09/16 10:43:12;;;;;;;2.50;1.00;;;16.70;99.90;;;;;;4898073;29;20426;-75
2022/09/16 10:45:45;;;;;;;2.37;0.90;;;17.10;99.90;;;;;;4898643;29;20389;-74
2022/09/16 10:48:17;;;;;;;3.03;0.80;;;17.50;99.90;;;;;;4898698;29;20416;-74
2022/09/16 10:51:04;;;;;;;1.97;1.00;;;17.50;99.90;;;;;;4898886;29;20918;-74
2022/09/16 10:53:36;;;;;;;4.50;0.90;;;17.10;99.90;;;;;;4898559;29;20791;-73
2022/09/16 10:56:05;;;;;;;2.30;0.80;;;17.00;99.90;;;;;;4898138;29;20405;-74
2022/09/16 10:58:31;;;;;;;2.50;0.70;;;16.90;99.90;;;;;;4898437;29;20451;-76
2022/09/16 11:01:06;;;;;;;3.30;0.70;;;17.10;99.90;;;;;;4898468;29;20406;-73
2022/09/16 11:03:34;;;;;;;3.60;1.10;;;17.20;99.90;;;;;;4898410;29;20445;-73
2022/09/16 11:06:08;;;;;;;3.63;0.83;;;17.50;99.90;;;;;;4898026;29;20459;-75
2022/09/16 11:08:41;;;;;;;2.67;0.73;;;17.80;99.90;;;;;;4898314;29;20430;-75
2022/09/16 11:11:25;;;;;;;3.83;1.00;;;17.80;99.90;;;;;;4898366;29;20398;-77
2022/09/16 11:13:58;;;;;;;1.60;0.60;;;17.50;99.90;;;;;;4897964;29;20437;-74
2022/09/16 11:16:29;;;;;;;0.90;0.57;;;17.60;99.90;;;;;;4897631;29;20446;-77
2022/09/16 11:19:16;;;;;;;1.63;0.60;;;17.70;99.90;;;;;;4898273;29;20422;-75
2022/09/16 11:22:11;;;;;;;2.53;0.90;;;17.50;99.90;;;;;;4898304;29;20385;-75
2022/09/16 11:24:39;;;;;;;2.67;0.87;;;17.90;99.90;;;;;;4897585;29;20803;-75
2022/09/16 11:27:25;;;;;;;2.40;1.00;;;18.50;99.90;;;;;;4897958;29;20459;-75
2022/09/16 11:30:00;;;;;;;2.27;0.93;;;18.60;99.90;;;;;;4898294;29;20386;-76
2022/09/16 11:32:50;;;;;;;1.10;0.60;;;18.50;99.90;;;;;;4898039;29;20462;-74
2022/09/16 11:35:28;;;;;;;3.10;0.90;;;18.20;99.90;;;;;;4896531;29;20398;-73
2022/09/16 11:38:04;;;;;;;1.13;0.93;;;17.90;99.90;;;;;;4896886;29;20861;-74
2022/09/16 11:40:33;;;;;;;2.83;0.63;;;17.30;99.90;;;;;;4897632;29;20404;-74
2022/09/16 11:43:23;;;;;;;1.60;0.87;;;16.80;99.90;;;;;;4898074;29;20405;-76
2022/09/16 11:46:09;;;;;;;5.97;1.00;;;16.40;99.90;;;;;;4897568;29;20397;-77
2022/09/16 11:48:53;;;;;;;2.43;1.00;;;16.20;99.90;;;;;;4881121;29;20954;-75
2022/09/16 11:51:32;;;;;;;1.90;0.90;;;16.10;99.90;;;;;;4898037;29;20437;-75
2022/09/16 11:54:42;;;;;;;3.03;0.93;;;15.90;99.90;;;;;;4896030;29;20522;-75
2022/09/16 11:57:16;;;;;;;5.00;0.97;;;15.40;99.90;;;;;;4898042;29;20439;-73
2022/09/16 12:00:15;;;;;;;2.50;0.80;;;14.80;99.90;;;;;;4897919;29;20447;-73
2022/09/16 12:02:54;;;;;;;2.77;0.77;;;15.00;99.90;;;;;;4897305;29;20788;-74
2022/09/16 12:05:29;;;;;;;3.07;0.80;;;15.10;99.90;;;;;;4880859;29;20423;-74
2022/09/16 12:08:23;;;;;;;1.80;0.83;;;15.00;99.90;;;;;;4897832;29;20417;-74
2022/09/16 12:10:59;;;;;;;2.00;0.80;;;14.60;99.90;;;;;;4897678;29;20411;-74
2022/09/16 12:13:48;;;;;;;3.40;1.30;;;14.50;99.90;;;;;;4897744;29;20462;-74
2022/09/16 12:16:21;;;;;;;3.00;1.40;;;13.80;99.90;;;;;;4880573;29;20975;-74
2022/09/16 12:18:51;;;;;;;11.83;2.33;;;13.30;99.90;;;;;;4897525;29;20424;-74
2022/09/16 12:21:39;;;;;;;6.67;1.40;;;13.10;99.90;;;;;;4897655;29;20423;-74
2022/09/16 12:24:13;;;;;;;5.97;1.40;;;13.00;99.90;;;;;;4897349;29;20475;-74
2022/09/16 12:26:45;;;;;;;5.17;1.30;;;13.00;99.90;;;;;;4897762;29;20438;-75
2022/09/16 12:29:32;;;;;;;5.40;1.80;;;12.90;99.90;;;;;;4900623;29;20430;-75
2022/09/16 12:32:12;;;;;;;4.53;1.20;;;12.60;99.90;;;;;;4901094;29;20419;-75
2022/09/16 12:35:01;;;;;;;2.57;1.00;;;12.30;99.90;;;;;;4901042;29;20768;-75
2022/09/16 12:37:35;;;;;;;9.03;1.10;;;12.00;99.90;;;;;;4899776;29;20447;-75
2022/09/16 12:40:02;;;;;;;1.40;1.07;;;11.80;99.90;;;;;;4900991;29;20470;-74
2022/09/16 12:43:00;;;;;;;1.23;1.07;;;11.70;99.90;;;;;;4900864;29;20419;-74
2022/09/16 12:45:34;;;;;;;2.50;1.00;;;11.70;99.90;;;;;;4899592;29;20419;-74
2022/09/16 12:48:27;;;;;;;1.17;0.90;;;11.60;99.90;;;;;;4901100;29;20430;-74
2022/09/16 12:51:29;;;;;;;2.63;1.00;;;11.60;99.90;;;;;;4900990;29;20415;-74
2022/09/16 12:54:14;;;;;;;1.90;0.83;;;11.50;99.90;;;;;;4899288;29;20517;-74
2022/09/16 12:56:48;;;;;;;4.70;1.30;;;11.60;99.90;;;;;;4900778;29;20501;-74
2022/09/16 12:59:57;;;;;;;5.10;1.30;;;11.60;99.90;;;;;;4900583;29;20455;-75
2022/09/16 13:02:28;;;;;;;1.30;0.90;;;11.60;99.90;;;;;;4900729;29;20463;-74
2022/09/16 13:04:58;;;;;;;2.30;0.77;;;11.40;99.90;;;;;;4900355;29;20828;-74
2022/09/16 13:07:34;;;;;;;3.05;0.80;;;11.30;99.90;;;;;;4900192;29;20775;-74
2022/09/16 13:10:19;;;;;;;4.95;0.75;;;11.20;99.90;;;;;;4900446;29;20199;-74
2022/09/16 13:12:53;;;;;;;1.83;0.70;;;11.20;99.90;;;;;;4900376;29;20561;-73
2022/09/16 13:15:34;;;;;;;5.00;1.00;;;11.10;99.90;;;;;;4899937;29;20458;-74
2022/09/16 13:18:15;;;;;;;3.42;0.93;;;11.00;99.90;;;;;;4900379;29;20179;-74